sensor_id;sensor_type;location;lat;lon;timestamp;P1;durP1;ratioP1;P2;durP2;ratioP2
50976;SDS011;36992;48.200;12.418;2023-02-22T00:00:12;9.77;;;4.30;;
50976;SDS011;36992;48.200;12.418;2023-02-22T00:02:44;8.60;;;4.80;;
50976;SDS011;36992;48.200;12.418;2023-02-22T00:05:12;11.55;;;5.05;;
50976;SDS011;36992;48.200;12.418;2023-02-22T00:07:41;35.78;;;14.63;;
50976;SDS011;36992;48.200;12.418;2023-02-22T00:10:10;35.17;;;14.30;;
50976;SDS011;36992;48.200;12.418;2023-02-22T00:12:38;20.92;;;9.00;;
50976;SDS011;36992;48.200;12.418;2023-02-22T00:15:06;20.92;;;8.55;;
50976;SDS011;36992;48.200;12.418;2023-02-22T00:17:33;19.73;;;7.70;;
50976;SDS011;36992;48.200;12.418;2023-02-22T00:19:59;19.77;;;8.75;;
50976;SDS011;36992;48.200;12.418;2023-02-22T00:22:26;19.30;;;9.00;;
50976;SDS011;36992;48.200;12.418;2023-02-22T00:24:53;16.60;;;7.20;;
50976;SDS011;36992;48.200;12.418;2023-02-22T00:27:21;13.63;;;6.20;;
50976;SDS011;36992;48.200;12.418;2023-02-22T00:29:47;14.43;;;5.78;;
50976;SDS011;36992;48.200;12.418;2023-02-22T00:32:14;13.82;;;5.97;;
50976;SDS011;36992;48.200;12.418;2023-02-22T00:34:40;13.43;;;5.75;;
50976;SDS011;36992;48.200;12.418;2023-02-22T00:37:07;11.85;;;5.47;;
50976;SDS011;36992;48.200;12.418;2023-02-22T00:39:35;13.32;;;6.10;;
50976;SDS011;36992;48.200;12.418;2023-02-22T00:42:02;12.27;;;5.82;;
50976;SDS011;36992;48.200;12.418;2023-02-22T00:44:30;12.32;;;5.28;;
50976;SDS011;36992;48.200;12.418;2023-02-22T00:46:57;10.95;;;4.60;;
50976;SDS011;36992;48.200;12.418;2023-02-22T00:49:23;11.20;;;4.57;;
50976;SDS011;36992;48.200;12.418;2023-02-22T00:51:51;10.13;;;4.30;;
50976;SDS011;36992;48.200;12.418;2023-02-22T00:54:18;10.20;;;5.10;;
50976;SDS011;36992;48.200;12.418;2023-02-22T00:56:45;9.95;;;5.00;;
50976;SDS011;36992;48.200;12.418;2023-02-22T00:59:12;10.02;;;5.13;;
50976;SDS011;36992;48.200;12.418;2023-02-22T01:01:39;10.07;;;4.20;;
50976;SDS011;36992;48.200;12.418;2023-02-22T01:04:06;11.85;;;4.85;;
50976;SDS011;36992;48.200;12.418;2023-02-22T01:06:33;10.50;;;4.43;;
50976;SDS011;36992;48.200;12.418;2023-02-22T01:08:59;10.02;;;4.20;;
50976;SDS011;36992;48.200;12.418;2023-02-22T01:11:27;12.75;;;5.50;;
50976;SDS011;36992;48.200;12.418;2023-02-22T01:13:53;12.65;;;6.00;;
50976;SDS011;36992;48.200;12.418;2023-02-22T01:16:21;11.82;;;5.00;;
50976;SDS011;36992;48.200;12.418;2023-02-22T01:18:49;10.80;;;5.85;;
50976;SDS011;36992;48.200;12.418;2023-02-22T01:21:16;11.75;;;4.85;;
50976;SDS011;36992;48.200;12.418;2023-02-22T01:23:43;11.82;;;5.68;;
50976;SDS011;36992;48.200;12.418;2023-02-22T01:26:09;12.70;;;4.63;;
50976;SDS011;36992;48.200;12.418;2023-02-22T01:28:36;9.85;;;4.50;;
50976;SDS011;36992;48.200;12.418;2023-02-22T01:31:04;9.98;;;3.80;;
50976;SDS011;36992;48.200;12.418;2023-02-22T01:33:30;7.75;;;4.60;;
50976;SDS011;36992;48.200;12.418;2023-02-22T01:35:59;11.13;;;4.40;;
50976;SDS011;36992;48.200;12.418;2023-02-22T01:38:25;10.45;;;4.07;;
50976;SDS011;36992;48.200;12.418;2023-02-22T01:40:52;6.88;;;3.28;;
50976;SDS011;36992;48.200;12.418;2023-02-22T01:43:19;7.88;;;3.63;;
50976;SDS011;36992;48.200;12.418;2023-02-22T01:45:49;8.75;;;4.18;;
50976;SDS011;36992;48.200;12.418;2023-02-22T01:48:22;7.32;;;3.17;;
50976;SDS011;36992;48.200;12.418;2023-02-22T01:50:53;8.35;;;3.15;;
50976;SDS011;36992;48.200;12.418;2023-02-22T01:53:27;9.43;;;4.07;;
50976;SDS011;36992;48.200;12.418;2023-02-22T01:55:57;8.10;;;3.97;;
50976;SDS011;36992;48.200;12.418;2023-02-22T01:58:25;7.35;;;3.13;;
50976;SDS011;36992;48.200;12.418;2023-02-22T02:00:53;6.72;;;3.08;;
50976;SDS011;36992;48.200;12.418;2023-02-22T02:03:22;7.38;;;3.47;;
50976;SDS011;36992;48.200;12.418;2023-02-22T02:05:53;6.68;;;2.92;;
50976;SDS011;36992;48.200;12.418;2023-02-22T02:08:24;7.53;;;2.75;;
50976;SDS011;36992;48.200;12.418;2023-02-22T02:10:56;6.40;;;2.35;;
50976;SDS011;36992;48.200;12.418;2023-02-22T02:13:25;7.03;;;2.63;;
50976;SDS011;36992;48.200;12.418;2023-02-22T02:15:53;6.15;;;2.50;;
50976;SDS011;36992;48.200;12.418;2023-02-22T02:18:20;9.20;;;3.30;;
50976;SDS011;36992;48.200;12.418;2023-02-22T02:20:51;7.30;;;2.83;;
50976;SDS011;36992;48.200;12.418;2023-02-22T02:29:44;5.85;;;2.65;;
50976;SDS011;36992;48.200;12.418;2023-02-22T02:32:27;7.53;;;3.28;;
50976;SDS011;36992;48.200;12.418;2023-02-22T02:35:03;5.60;;;2.50;;
50976;SDS011;36992;48.200;12.418;2023-02-22T02:37:39;4.10;;;1.85;;
50976;SDS011;36992;48.200;12.418;2023-02-22T02:40:15;5.00;;;2.33;;
50976;SDS011;36992;48.200;12.418;2023-02-22T02:42:49;5.82;;;2.45;;
50976;SDS011;36992;48.200;12.418;2023-02-22T02:45:20;6.05;;;2.40;;
50976;SDS011;36992;48.200;12.418;2023-02-22T02:47:53;6.30;;;2.50;;
50976;SDS011;36992;48.200;12.418;2023-02-22T02:50:24;6.38;;;3.50;;
50976;SDS011;36992;48.200;12.418;2023-02-22T02:52:54;6.75;;;2.50;;
50976;SDS011;36992;48.200;12.418;2023-02-22T02:55:24;5.25;;;2.70;;
50976;SDS011;36992;48.200;12.418;2023-02-22T02:57:53;5.85;;;2.53;;
50976;SDS011;36992;48.200;12.418;2023-02-22T03:00:19;7.45;;;2.70;;
50976;SDS011;36992;48.200;12.418;2023-02-22T03:02:57;7.88;;;3.60;;
50976;SDS011;36992;48.200;12.418;2023-02-22T03:05:39;5.60;;;2.75;;
50976;SDS011;36992;48.200;12.418;2023-02-22T03:08:27;4.55;;;1.90;;
50976;SDS011;36992;48.200;12.418;2023-02-22T03:11:01;6.28;;;2.92;;
50976;SDS011;36992;48.200;12.418;2023-02-22T03:13:39;4.93;;;1.98;;
50976;SDS011;36992;48.200;12.418;2023-02-22T03:16:11;6.68;;;2.88;;
50976;SDS011;36992;48.200;12.418;2023-02-22T03:18:48;6.95;;;2.38;;
50976;SDS011;36992;48.200;12.418;2023-02-22T03:21:21;5.47;;;2.08;;
50976;SDS011;36992;48.200;12.418;2023-02-22T03:23:54;8.20;;;2.95;;
50976;SDS011;36992;48.200;12.418;2023-02-22T03:26:28;5.87;;;2.30;;
50976;SDS011;36992;48.200;12.418;2023-02-22T03:28:57;4.55;;;2.22;;
50976;SDS011;36992;48.200;12.418;2023-02-22T03:31:28;3.42;;;1.60;;
50976;SDS011;36992;48.200;12.418;2023-02-22T03:33:58;5.15;;;2.00;;
50976;SDS011;36992;48.200;12.418;2023-02-22T03:36:29;4.15;;;1.90;;
50976;SDS011;36992;48.200;12.418;2023-02-22T03:39:03;3.95;;;2.13;;
50976;SDS011;36992;48.200;12.418;2023-02-22T03:41:32;4.72;;;2.20;;
50976;SDS011;36992;48.200;12.418;2023-02-22T03:44:04;3.50;;;2.00;;
50976;SDS011;36992;48.200;12.418;2023-02-22T03:46:33;4.35;;;2.17;;
50976;SDS011;36992;48.200;12.418;2023-02-22T03:49:07;4.88;;;2.35;;
50976;SDS011;36992;48.200;12.418;2023-02-22T03:51:37;4.55;;;1.73;;
50976;SDS011;36992;48.200;12.418;2023-02-22T03:54:04;5.80;;;2.00;;
50976;SDS011;36992;48.200;12.418;2023-02-22T03:56:32;3.97;;;1.55;;
50976;SDS011;36992;48.200;12.418;2023-02-22T03:59:02;5.60;;;1.80;;
50976;SDS011;36992;48.200;12.418;2023-02-22T04:01:31;4.25;;;1.98;;
50976;SDS011;36992;48.200;12.418;2023-02-22T04:03:58;4.22;;;1.85;;
50976;SDS011;36992;48.200;12.418;2023-02-22T04:06:27;3.75;;;1.50;;
50976;SDS011;36992;48.200;12.418;2023-02-22T04:08:53;4.05;;;1.77;;
50976;SDS011;36992;48.200;12.418;2023-02-22T04:11:21;3.83;;;1.60;;
50976;SDS011;36992;48.200;12.418;2023-02-22T04:13:48;5.32;;;1.75;;
50976;SDS011;36992;48.200;12.418;2023-02-22T04:16:14;5.65;;;2.25;;
50976;SDS011;36992;48.200;12.418;2023-02-22T04:18:41;3.22;;;1.38;;
50976;SDS011;36992;48.200;12.418;2023-02-22T04:21:07;3.42;;;1.42;;
50976;SDS011;36992;48.200;12.418;2023-02-22T04:23:35;3.05;;;1.25;;
50976;SDS011;36992;48.200;12.418;2023-02-22T04:26:02;5.88;;;1.65;;
50976;SDS011;36992;48.200;12.418;2023-02-22T04:28:28;5.30;;;1.60;;
50976;SDS011;36992;48.200;12.418;2023-02-22T04:30:55;3.65;;;1.40;;
50976;SDS011;36992;48.200;12.418;2023-02-22T04:33:21;3.03;;;1.40;;
50976;SDS011;36992;48.200;12.418;2023-02-22T04:35:48;4.65;;;2.10;;
50976;SDS011;36992;48.200;12.418;2023-02-22T04:38:15;2.53;;;1.13;;
50976;SDS011;36992;48.200;12.418;2023-02-22T04:40:43;3.22;;;1.30;;
50976;SDS011;36992;48.200;12.418;2023-02-22T04:43:10;4.65;;;1.63;;
50976;SDS011;36992;48.200;12.418;2023-02-22T04:45:36;3.13;;;1.33;;
50976;SDS011;36992;48.200;12.418;2023-02-22T04:48:03;4.45;;;1.60;;
50976;SDS011;36992;48.200;12.418;2023-02-22T04:50:30;5.82;;;1.60;;
50976;SDS011;36992;48.200;12.418;2023-02-22T04:52:56;3.28;;;1.38;;
50976;SDS011;36992;48.200;12.418;2023-02-22T04:55:22;4.45;;;1.23;;
50976;SDS011;36992;48.200;12.418;2023-02-22T04:57:50;4.10;;;1.40;;
50976;SDS011;36992;48.200;12.418;2023-02-22T05:00:17;3.35;;;1.35;;
50976;SDS011;36992;48.200;12.418;2023-02-22T05:02:45;3.65;;;1.60;;
50976;SDS011;36992;48.200;12.418;2023-02-22T05:05:12;5.85;;;2.78;;
50976;SDS011;36992;48.200;12.418;2023-02-22T05:07:39;3.88;;;1.33;;
50976;SDS011;36992;48.200;12.418;2023-02-22T05:10:06;5.55;;;1.48;;
50976;SDS011;36992;48.200;12.418;2023-02-22T05:12:33;3.72;;;1.40;;
50976;SDS011;36992;48.200;12.418;2023-02-22T05:15:01;4.55;;;1.50;;
50976;SDS011;36992;48.200;12.418;2023-02-22T05:17:29;3.15;;;1.83;;
50976;SDS011;36992;48.200;12.418;2023-02-22T05:19:55;4.95;;;1.65;;
50976;SDS011;36992;48.200;12.418;2023-02-22T05:22:22;4.88;;;2.15;;
50976;SDS011;36992;48.200;12.418;2023-02-22T05:24:48;3.33;;;1.98;;
50976;SDS011;36992;48.200;12.418;2023-02-22T05:27:16;5.10;;;1.67;;
50976;SDS011;36992;48.200;12.418;2023-02-22T05:29:42;3.90;;;1.95;;
50976;SDS011;36992;48.200;12.418;2023-02-22T05:32:10;4.22;;;1.83;;
50976;SDS011;36992;48.200;12.418;2023-02-22T05:34:37;4.15;;;1.70;;
50976;SDS011;36992;48.200;12.418;2023-02-22T05:37:04;4.03;;;1.65;;
50976;SDS011;36992;48.200;12.418;2023-02-22T05:39:30;4.35;;;1.50;;
50976;SDS011;36992;48.200;12.418;2023-02-22T05:41:57;4.43;;;2.00;;
50976;SDS011;36992;48.200;12.418;2023-02-22T05:44:24;4.18;;;1.85;;
50976;SDS011;36992;48.200;12.418;2023-02-22T05:46:51;3.38;;;1.10;;
50976;SDS011;36992;48.200;12.418;2023-02-22T05:49:19;4.25;;;1.55;;
50976;SDS011;36992;48.200;12.418;2023-02-22T05:51:46;4.13;;;1.70;;
50976;SDS011;36992;48.200;12.418;2023-02-22T05:54:12;3.10;;;1.33;;
50976;SDS011;36992;48.200;12.418;2023-02-22T05:56:39;5.43;;;1.42;;
50976;SDS011;36992;48.200;12.418;2023-02-22T05:59:05;2.78;;;1.20;;
50976;SDS011;36992;48.200;12.418;2023-02-22T06:01:32;5.30;;;1.80;;
50976;SDS011;36992;48.200;12.418;2023-02-22T06:03:58;3.55;;;1.48;;
50976;SDS011;36992;48.200;12.418;2023-02-22T06:06:26;4.68;;;1.67;;
50976;SDS011;36992;48.200;12.418;2023-02-22T06:08:53;5.28;;;1.60;;
50976;SDS011;36992;48.200;12.418;2023-02-22T06:11:19;5.75;;;1.60;;
50976;SDS011;36992;48.200;12.418;2023-02-22T06:13:49;3.92;;;1.70;;
50976;SDS011;36992;48.200;12.418;2023-02-22T06:16:16;5.28;;;1.77;;
50976;SDS011;36992;48.200;12.418;2023-02-22T06:18:43;4.75;;;1.85;;
50976;SDS011;36992;48.200;12.418;2023-02-22T06:21:09;5.18;;;3.00;;
50976;SDS011;36992;48.200;12.418;2023-02-22T06:23:37;5.72;;;2.55;;
50976;SDS011;36992;48.200;12.418;2023-02-22T06:26:04;3.92;;;2.13;;
50976;SDS011;36992;48.200;12.418;2023-02-22T06:28:30;6.03;;;2.33;;
50976;SDS011;36992;48.200;12.418;2023-02-22T06:30:57;3.78;;;1.80;;
50976;SDS011;36992;48.200;12.418;2023-02-22T06:33:23;5.13;;;1.90;;
50976;SDS011;36992;48.200;12.418;2023-02-22T06:35:50;2.75;;;1.38;;
50976;SDS011;36992;48.200;12.418;2023-02-22T06:38:19;4.00;;;1.98;;
50976;SDS011;36992;48.200;12.418;2023-02-22T06:40:48;4.35;;;2.15;;
50976;SDS011;36992;48.200;12.418;2023-02-22T06:43:15;4.70;;;2.13;;
50976;SDS011;36992;48.200;12.418;2023-02-22T06:45:42;5.40;;;2.28;;
50976;SDS011;36992;48.200;12.418;2023-02-22T06:48:08;5.57;;;2.53;;
50976;SDS011;36992;48.200;12.418;2023-02-22T06:50:35;3.80;;;1.67;;
50976;SDS011;36992;48.200;12.418;2023-02-22T06:53:01;4.45;;;1.98;;
50976;SDS011;36992;48.200;12.418;2023-02-22T06:55:29;3.88;;;1.73;;
50976;SDS011;36992;48.200;12.418;2023-02-22T06:57:59;5.45;;;2.35;;
50976;SDS011;36992;48.200;12.418;2023-02-22T07:00:26;2.85;;;1.30;;
50976;SDS011;36992;48.200;12.418;2023-02-22T07:02:54;3.67;;;1.73;;
50976;SDS011;36992;48.200;12.418;2023-02-22T07:05:21;3.03;;;1.38;;
50976;SDS011;36992;48.200;12.418;2023-02-22T07:07:50;3.30;;;1.50;;
50976;SDS011;36992;48.200;12.418;2023-02-22T07:10:19;3.58;;;1.35;;
50976;SDS011;36992;48.200;12.418;2023-02-22T07:12:48;3.65;;;1.50;;
50976;SDS011;36992;48.200;12.418;2023-02-22T07:15:18;5.78;;;1.33;;
50976;SDS011;36992;48.200;12.418;2023-02-22T07:17:46;5.45;;;1.33;;
50976;SDS011;36992;48.200;12.418;2023-02-22T07:20:13;3.50;;;1.50;;
50976;SDS011;36992;48.200;12.418;2023-02-22T07:22:39;2.92;;;1.30;;
50976;SDS011;36992;48.200;12.418;2023-02-22T07:25:06;3.58;;;1.25;;
50976;SDS011;36992;48.200;12.418;2023-02-22T07:27:35;5.63;;;1.20;;
50976;SDS011;36992;48.200;12.418;2023-02-22T07:30:02;4.05;;;1.30;;
50976;SDS011;36992;48.200;12.418;2023-02-22T07:32:31;6.28;;;1.50;;
50976;SDS011;36992;48.200;12.418;2023-02-22T07:34:57;2.53;;;1.30;;
50976;SDS011;36992;48.200;12.418;2023-02-22T07:37:26;3.08;;;1.23;;
50976;SDS011;36992;48.200;12.418;2023-02-22T07:39:52;3.00;;;1.30;;
50976;SDS011;36992;48.200;12.418;2023-02-22T07:42:19;2.83;;;1.50;;
50976;SDS011;36992;48.200;12.418;2023-02-22T07:44:45;3.55;;;1.27;;
50976;SDS011;36992;48.200;12.418;2023-02-22T07:47:11;5.07;;;1.00;;
50976;SDS011;36992;48.200;12.418;2023-02-22T07:49:39;1.80;;;0.90;;
50976;SDS011;36992;48.200;12.418;2023-02-22T07:52:06;2.75;;;1.75;;
50976;SDS011;36992;48.200;12.418;2023-02-22T07:54:32;2.60;;;1.00;;
50976;SDS011;36992;48.200;12.418;2023-02-22T07:56:59;2.90;;;1.35;;
50976;SDS011;36992;48.200;12.418;2023-02-22T07:59:27;3.05;;;1.33;;
50976;SDS011;36992;48.200;12.418;2023-02-22T08:01:53;2.55;;;1.17;;
50976;SDS011;36992;48.200;12.418;2023-02-22T08:04:20;2.55;;;1.30;;
50976;SDS011;36992;48.200;12.418;2023-02-22T08:06:48;2.63;;;1.35;;
50976;SDS011;36992;48.200;12.418;2023-02-22T08:09:14;2.00;;;0.80;;
50976;SDS011;36992;48.200;12.418;2023-02-22T08:11:41;4.60;;;1.55;;
50976;SDS011;36992;48.200;12.418;2023-02-22T08:14:07;2.90;;;1.42;;
50976;SDS011;36992;48.200;12.418;2023-02-22T08:16:34;2.35;;;1.15;;
50976;SDS011;36992;48.200;12.418;2023-02-22T08:19:00;2.50;;;1.00;;
50976;SDS011;36992;48.200;12.418;2023-02-22T08:21:27;4.05;;;1.38;;
50976;SDS011;36992;48.200;12.418;2023-02-22T08:23:55;4.57;;;1.50;;
50976;SDS011;36992;48.200;12.418;2023-02-22T08:26:22;7.85;;;2.92;;
50976;SDS011;36992;48.200;12.418;2023-02-22T08:28:49;4.55;;;2.00;;
50976;SDS011;36992;48.200;12.418;2023-02-22T08:31:15;3.00;;;1.60;;
50976;SDS011;36992;48.200;12.418;2023-02-22T08:33:42;4.75;;;1.77;;
50976;SDS011;36992;48.200;12.418;2023-02-22T08:36:12;2.95;;;1.67;;
50976;SDS011;36992;48.200;12.418;2023-02-22T08:38:40;2.10;;;0.98;;
50976;SDS011;36992;48.200;12.418;2023-02-22T08:41:08;2.05;;;0.90;;
50976;SDS011;36992;48.200;12.418;2023-02-22T08:43:34;3.92;;;1.52;;
50976;SDS011;36992;48.200;12.418;2023-02-22T08:46:01;2.70;;;1.50;;
50976;SDS011;36992;48.200;12.418;2023-02-22T08:48:27;7.63;;;1.25;;
50976;SDS011;36992;48.200;12.418;2023-02-22T08:50:54;2.53;;;1.00;;
50976;SDS011;36992;48.200;12.418;2023-02-22T08:53:20;2.80;;;1.08;;
50976;SDS011;36992;48.200;12.418;2023-02-22T08:55:47;3.70;;;1.10;;
50976;SDS011;36992;48.200;12.418;2023-02-22T08:58:15;4.95;;;1.15;;
50976;SDS011;36992;48.200;12.418;2023-02-22T09:00:42;3.08;;;1.00;;
50976;SDS011;36992;48.200;12.418;2023-02-22T09:03:10;2.67;;;1.08;;
50976;SDS011;36992;48.200;12.418;2023-02-22T09:05:38;2.40;;;1.13;;
50976;SDS011;36992;48.200;12.418;2023-02-22T09:08:05;2.25;;;0.55;;
50976;SDS011;36992;48.200;12.418;2023-02-22T09:10:32;3.15;;;0.80;;
50976;SDS011;36992;48.200;12.418;2023-02-22T09:12:59;2.08;;;0.85;;
50976;SDS011;36992;48.200;12.418;2023-02-22T09:15:27;2.63;;;0.88;;
50976;SDS011;36992;48.200;12.418;2023-02-22T09:17:55;2.10;;;0.60;;
50976;SDS011;36992;48.200;12.418;2023-02-22T09:20:22;2.17;;;0.68;;
50976;SDS011;36992;48.200;12.418;2023-02-22T09:22:50;1.63;;;0.50;;
50976;SDS011;36992;48.200;12.418;2023-02-22T09:25:17;2.10;;;0.90;;
50976;SDS011;36992;48.200;12.418;2023-02-22T09:27:46;1.80;;;0.80;;
50976;SDS011;36992;48.200;12.418;2023-02-22T09:30:17;1.42;;;0.60;;
50976;SDS011;36992;48.200;12.418;2023-02-22T09:32:48;2.45;;;0.68;;
50976;SDS011;36992;48.200;12.418;2023-02-22T09:35:16;1.90;;;0.68;;
50976;SDS011;36992;48.200;12.418;2023-02-22T09:37:43;2.35;;;1.10;;
50976;SDS011;36992;48.200;12.418;2023-02-22T09:40:13;2.17;;;0.82;;
50976;SDS011;36992;48.200;12.418;2023-02-22T09:42:43;1.33;;;0.35;;
50976;SDS011;36992;48.200;12.418;2023-02-22T09:45:17;1.75;;;0.80;;
50976;SDS011;36992;48.200;12.418;2023-02-22T09:47:49;3.50;;;1.00;;
50976;SDS011;36992;48.200;12.418;2023-02-22T09:50:20;2.72;;;0.73;;
50976;SDS011;36992;48.200;12.418;2023-02-22T09:52:51;2.72;;;0.82;;
50976;SDS011;36992;48.200;12.418;2023-02-22T09:55:25;2.50;;;0.68;;
50976;SDS011;36992;48.200;12.418;2023-02-22T09:57:58;2.60;;;0.70;;
50976;SDS011;36992;48.200;12.418;2023-02-22T10:00:29;2.35;;;1.00;;
50976;SDS011;36992;48.200;12.418;2023-02-22T10:03:02;2.85;;;0.75;;
50976;SDS011;36992;48.200;12.418;2023-02-22T10:05:38;2.47;;;1.10;;
50976;SDS011;36992;48.200;12.418;2023-02-22T10:08:09;3.15;;;0.90;;
50976;SDS011;36992;48.200;12.418;2023-02-22T10:10:38;2.55;;;0.80;;
50976;SDS011;36992;48.200;12.418;2023-02-22T10:13:09;1.90;;;0.60;;
50976;SDS011;36992;48.200;12.418;2023-02-22T10:15:48;1.58;;;0.50;;
50976;SDS011;36992;48.200;12.418;2023-02-22T10:18:30;1.85;;;0.77;;
50976;SDS011;36992;48.200;12.418;2023-02-22T10:21:17;2.67;;;1.00;;
50976;SDS011;36992;48.200;12.418;2023-02-22T10:23:56;4.00;;;1.45;;
50976;SDS011;36992;48.200;12.418;2023-02-22T10:26:32;3.63;;;1.67;;
50976;SDS011;36992;48.200;12.418;2023-02-22T10:29:02;4.57;;;0.90;;
50976;SDS011;36992;48.200;12.418;2023-02-22T10:31:33;3.13;;;0.95;;
50976;SDS011;36992;48.200;12.418;2023-02-22T10:34:08;2.67;;;1.08;;
50976;SDS011;36992;48.200;12.418;2023-02-22T10:36:39;2.38;;;1.30;;
50976;SDS011;36992;48.200;12.418;2023-02-22T10:39:11;2.40;;;1.17;;
50976;SDS011;36992;48.200;12.418;2023-02-22T10:41:43;3.42;;;0.80;;
50976;SDS011;36992;48.200;12.418;2023-02-22T10:44:14;4.25;;;1.60;;
50976;SDS011;36992;48.200;12.418;2023-02-22T10:46:41;2.80;;;1.55;;
50976;SDS011;36992;48.200;12.418;2023-02-22T10:49:10;2.13;;;1.17;;
50976;SDS011;36992;48.200;12.418;2023-02-22T10:51:43;2.15;;;1.13;;
50976;SDS011;36992;48.200;12.418;2023-02-22T10:54:17;3.42;;;1.42;;
50976;SDS011;36992;48.200;12.418;2023-02-22T10:56:51;2.90;;;1.10;;
50976;SDS011;36992;48.200;12.418;2023-02-22T10:59:26;2.35;;;1.35;;
50976;SDS011;36992;48.200;12.418;2023-02-22T11:01:54;2.42;;;1.27;;
50976;SDS011;36992;48.200;12.418;2023-02-22T11:04:21;4.70;;;1.48;;
50976;SDS011;36992;48.200;12.418;2023-02-22T11:06:54;3.88;;;1.50;;
50976;SDS011;36992;48.200;12.418;2023-02-22T11:09:44;3.50;;;1.95;;
50976;SDS011;36992;48.200;12.418;2023-02-22T11:12:15;2.60;;;1.50;;
50976;SDS011;36992;48.200;12.418;2023-02-22T11:14:44;1.90;;;0.95;;
50976;SDS011;36992;48.200;12.418;2023-02-22T11:17:12;3.42;;;1.65;;
50976;SDS011;36992;48.200;12.418;2023-02-22T11:19:46;3.85;;;1.50;;
50976;SDS011;36992;48.200;12.418;2023-02-22T11:22:18;2.25;;;1.17;;
50976;SDS011;36992;48.200;12.418;2023-02-22T11:24:48;3.47;;;1.33;;
50976;SDS011;36992;48.200;12.418;2023-02-22T11:27:21;2.65;;;1.25;;
50976;SDS011;36992;48.200;12.418;2023-02-22T11:29:52;4.05;;;1.63;;
50976;SDS011;36992;48.200;12.418;2023-02-22T11:32:20;3.10;;;1.35;;
50976;SDS011;36992;48.200;12.418;2023-02-22T11:34:49;2.78;;;1.10;;
50976;SDS011;36992;48.200;12.418;2023-02-22T11:37:27;4.32;;;2.42;;
50976;SDS011;36992;48.200;12.418;2023-02-22T11:40:04;4.45;;;1.60;;
50976;SDS011;36992;48.200;12.418;2023-02-22T11:42:36;3.97;;;1.40;;
50976;SDS011;36992;48.200;12.418;2023-02-22T11:45:10;3.47;;;1.70;;
50976;SDS011;36992;48.200;12.418;2023-02-22T11:50:20;3.72;;;1.60;;
50976;SDS011;36992;48.200;12.418;2023-02-22T11:52:53;3.20;;;1.00;;
50976;SDS011;36992;48.200;12.418;2023-02-22T11:55:31;6.53;;;1.65;;
50976;SDS011;36992;48.200;12.418;2023-02-22T11:58:03;3.63;;;1.80;;
50976;SDS011;36992;48.200;12.418;2023-02-22T12:00:45;4.03;;;1.52;;
50976;SDS011;36992;48.200;12.418;2023-02-22T12:03:23;5.57;;;1.85;;
50976;SDS011;36992;48.200;12.418;2023-02-22T12:06:05;6.82;;;2.55;;
50976;SDS011;36992;48.200;12.418;2023-02-22T12:08:45;6.10;;;2.63;;
50976;SDS011;36992;48.200;12.418;2023-02-22T12:11:21;9.70;;;4.15;;
50976;SDS011;36992;48.200;12.418;2023-02-22T12:16:53;7.13;;;2.65;;
50976;SDS011;36992;48.200;12.418;2023-02-22T12:19:45;2.40;;;1.20;;
50976;SDS011;36992;48.200;12.418;2023-02-22T12:22:16;6.88;;;2.72;;
50976;SDS011;36992;48.200;12.418;2023-02-22T12:24:46;7.78;;;3.13;;
50976;SDS011;36992;48.200;12.418;2023-02-22T12:27:18;17.83;;;9.77;;
50976;SDS011;36992;48.200;12.418;2023-02-22T12:29:52;12.77;;;6.30;;
50976;SDS011;36992;48.200;12.418;2023-02-22T12:32:27;4.30;;;2.30;;
50976;SDS011;36992;48.200;12.418;2023-02-22T12:34:59;4.22;;;1.88;;
50976;SDS011;36992;48.200;12.418;2023-02-22T12:37:33;3.13;;;1.35;;
50976;SDS011;36992;48.200;12.418;2023-02-22T12:40:10;5.53;;;2.33;;
50976;SDS011;36992;48.200;12.418;2023-02-22T12:42:49;3.80;;;2.10;;
50976;SDS011;36992;48.200;12.418;2023-02-22T12:45:24;4.90;;;2.15;;
50976;SDS011;36992;48.200;12.418;2023-02-22T12:47:58;3.90;;;1.60;;
50976;SDS011;36992;48.200;12.418;2023-02-22T12:50:34;4.13;;;1.33;;
50976;SDS011;36992;48.200;12.418;2023-02-22T12:53:06;2.47;;;1.10;;
50976;SDS011;36992;48.200;12.418;2023-02-22T12:55:40;3.58;;;1.80;;
50976;SDS011;36992;48.200;12.418;2023-02-22T12:58:15;3.45;;;1.48;;
50976;SDS011;36992;48.200;12.418;2023-02-22T13:00:49;2.83;;;1.52;;
50976;SDS011;36992;48.200;12.418;2023-02-22T13:03:26;2.55;;;1.10;;
50976;SDS011;36992;48.200;12.418;2023-02-22T13:06:01;2.90;;;1.33;;
50976;SDS011;36992;48.200;12.418;2023-02-22T13:08:42;1.90;;;1.13;;
50976;SDS011;36992;48.200;12.418;2023-02-22T13:11:17;3.40;;;0.85;;
50976;SDS011;36992;48.200;12.418;2023-02-22T13:13:53;3.40;;;0.85;;
50976;SDS011;36992;48.200;12.418;2023-02-22T13:16:31;2.25;;;0.80;;
50976;SDS011;36992;48.200;12.418;2023-02-22T13:19:07;1.65;;;0.50;;
50976;SDS011;36992;48.200;12.418;2023-02-22T13:21:48;1.70;;;0.63;;
50976;SDS011;36992;48.200;12.418;2023-02-22T13:24:22;2.08;;;0.70;;
50976;SDS011;36992;48.200;12.418;2023-02-22T13:26:55;1.65;;;0.65;;
50976;SDS011;36992;48.200;12.418;2023-02-22T13:29:28;1.33;;;0.50;;
50976;SDS011;36992;48.200;12.418;2023-02-22T13:32:04;1.83;;;0.65;;
50976;SDS011;36992;48.200;12.418;2023-02-22T13:34:43;1.42;;;0.52;;
50976;SDS011;36992;48.200;12.418;2023-02-22T13:37:23;1.85;;;0.57;;
50976;SDS011;36992;48.200;12.418;2023-02-22T13:40:15;1.55;;;0.43;;
50976;SDS011;36992;48.200;12.418;2023-02-22T13:43:03;2.10;;;0.60;;
50976;SDS011;36992;48.200;12.418;2023-02-22T13:45:53;1.50;;;0.50;;
50976;SDS011;36992;48.200;12.418;2023-02-22T13:48:39;0.90;;;0.50;;
50976;SDS011;36992;48.200;12.418;2023-02-22T13:51:32;1.73;;;0.60;;
50976;SDS011;36992;48.200;12.418;2023-02-22T13:54:11;1.13;;;0.43;;
50976;SDS011;36992;48.200;12.418;2023-02-22T13:56:44;1.40;;;0.47;;
50976;SDS011;36992;48.200;12.418;2023-02-22T14:02:04;1.17;;;0.40;;
50976;SDS011;36992;48.200;12.418;2023-02-22T14:04:35;3.80;;;0.50;;
50976;SDS011;36992;48.200;12.418;2023-02-22T14:10:22;3.72;;;0.40;;
50976;SDS011;36992;48.200;12.418;2023-02-22T14:13:04;1.35;;;0.40;;
50976;SDS011;36992;48.200;12.418;2023-02-22T14:15:31;1.80;;;0.50;;
50976;SDS011;36992;48.200;12.418;2023-02-22T14:17:58;1.40;;;0.30;;
50976;SDS011;36992;48.200;12.418;2023-02-22T14:20:27;1.48;;;0.40;;
50976;SDS011;36992;48.200;12.418;2023-02-22T14:22:56;1.50;;;0.55;;
50976;SDS011;36992;48.200;12.418;2023-02-22T14:25:43;1.45;;;0.35;;
50976;SDS011;36992;48.200;12.418;2023-02-22T14:31:05;1.95;;;0.40;;
50976;SDS011;36992;48.200;12.418;2023-02-22T14:36:25;1.17;;;0.40;;
50976;SDS011;36992;48.200;12.418;2023-02-22T14:39:05;1.50;;;0.38;;
50976;SDS011;36992;48.200;12.418;2023-02-22T14:41:37;0.98;;;0.30;;
50976;SDS011;36992;48.200;12.418;2023-02-22T14:44:09;0.95;;;0.30;;
50976;SDS011;36992;48.200;12.418;2023-02-22T14:46:37;1.02;;;0.40;;
50976;SDS011;36992;48.200;12.418;2023-02-22T14:49:07;1.75;;;0.20;;
50976;SDS011;36992;48.200;12.418;2023-02-22T14:51:43;1.30;;;0.40;;
50976;SDS011;36992;48.200;12.418;2023-02-22T14:54:20;1.17;;;0.20;;
50976;SDS011;36992;48.200;12.418;2023-02-22T14:56:51;0.57;;;0.30;;
50976;SDS011;36992;48.200;12.418;2023-02-22T14:59:24;2.45;;;0.38;;
50976;SDS011;36992;48.200;12.418;2023-02-22T15:02:02;1.67;;;0.43;;
50976;SDS011;36992;48.200;12.418;2023-02-22T15:04:30;0.90;;;0.30;;
50976;SDS011;36992;48.200;12.418;2023-02-22T15:06:57;1.17;;;0.30;;
50976;SDS011;36992;48.200;12.418;2023-02-22T15:09:26;0.95;;;0.30;;
50976;SDS011;36992;48.200;12.418;2023-02-22T15:11:56;1.20;;;0.25;;
50976;SDS011;36992;48.200;12.418;2023-02-22T15:14:39;1.52;;;0.20;;